Tim Quigg — WDB6570 — position and weather

sailwx.info

Track history (hours):
 
Tides and Currents Weather Stations Pressure Air Temp Water Temp Dewpoint Dewpoint Depression Visibility Wind Speed Wind Dir Waves Ship Positions

Tim Quigg

Owner: Harley Marine Services, Inc, Seattle, WA. More information available from US FCC via Universal Licensing System and Coast Guard Vessel Documentation Center.

Last reported at 2015-Jul-02 17:33 UTC. Time now 2015-Jul-02 18:20 UTC.
Position N 33°44' W 118°16'.

; draft 7.5 m.

Type: Tug. MMSI: 366926740.

Date/timePositionNaut miles runAvg speedWind from/ knotsBaromVisibWave heightAir tempDewpointWater temp
2015-Jul-02 17:33N 33°44' W 118°16'0 0.2
2015-Jul-02 16:33N 33°44' W 118°16'0 0.0
2015-Jul-02 15:17N 33°44' W 118°16'1 1.3
2015-Jul-02 14:33N 33°45' W 118°17'3 2.7
2015-Jul-02 13:33N 33°46' W 118°14'0 0.4
2015-Jul-02 12:33N 33°46' W 118°13'3 3.0
2015-Jul-02 11:33N 33°44' W 118°11'0 0.2
2015-Jul-02 10:33N 33°44' W 118°11'4 3.6
2015-Jul-02 09:34N 33°43' W 118°15'1 1.3
2015-Jul-02 08:33N 33°44' W 118°16'0 0.0
2015-Jul-02 07:33N 33°44' W 118°16'0 0.0
2015-Jul-02 06:32N 33°44' W 118°16'4 3.6
2015-Jul-02 05:30N 33°44' W 118°11'1 1.0
2015-Jul-02 04:33N 33°44' W 118°12'3 2.8
2015-Jul-02 03:33N 33°44' W 118°16'1 1.0
2015-Jul-02 02:33N 33°45' W 118°16'3 2.9
2015-Jul-02 01:33N 33°45' W 118°13'0 0.4
2015-Jul-02 00:33N 33°45' W 118°13'0 0.0
2015-Jul-01 23:33N 33°45' W 118°13'1 0.7
2015-Jul-01 22:34N 33°45' W 118°14'2 2.3
2015-Jul-01 21:34N 33°44' W 118°12'3 3.2
2015-Jul-01 20:33N 33°43' W 118°16'0 0.0
2015-Jul-01 06:33N 33°44' W 118°16'3 2.9
2015-Jul-01 05:33N 33°45' W 118°12'1 1.1
2015-Jul-01 04:33N 33°44' W 118°13'1 1.3
2015-Jul-01 03:33N 33°43' W 118°14'1 1.5
2015-Jul-01 02:33N 33°44' W 118°16'0 0.0
2015-Jul-01 01:32N 33°44' W 118°16'1 0.7
2015-Jul-01 00:33N 33°44' W 118°16'0 0.0
2015-Jun-30 23:33N 33°44' W 118°16'1 1.2
2015-Jun-30 22:33N 33°45' W 118°16'1 1.2
2015-Jun-30 21:33N 33°44' W 118°16'0 0.1
2015-Jun-30 20:33N 33°44' W 118°16'0 0.0
2015-Jun-30 19:33N 33°44' W 118°16'0 0.0
2015-Jun-30 18:33N 33°44' W 118°16'0 0.1
2015-Jun-30 17:33N 33°44' W 118°16'2 1.9
2015-Jun-30 16:33N 33°44' W 118°13'0 0.4
2015-Jun-30 15:33N 33°44' W 118°13'2 2.5
2015-Jun-30 14:33N 33°46' W 118°13'3 3.2
2015-Jun-30 13:33N 33°44' W 118°16'2 2.4
2015-Jun-30 12:33N 33°44' W 118°13'1 0.9
2015-Jun-30 11:33N 33°44' W 118°13'1 0.9
2015-Jun-30 10:33N 33°44' W 118°12'2 1.6
2015-Jun-30 09:33N 33°45' W 118°13'1 1.5
2015-Jun-30 08:33N 33°44' W 118°13'2 1.9
2015-Jun-30 07:33N 33°44' W 118°16'0 0.1
2015-Jun-30 06:33N 33°44' W 118°16'0 0.0
2015-Jun-30 05:33N 33°44' W 118°16'0 0.0
2015-Jun-30 04:33N 33°44' W 118°16'1 0.6
2015-Jun-30 03:33N 33°44' W 118°16'2 2.2
2015-Jun-30 02:33N 33°46' W 118°15'1 1.2
2015-Jun-30 01:33N 33°45' W 118°14'0 0.0
2015-Jun-30 00:33N 33°45' W 118°14'0 0.0
2015-Jun-29 23:33N 33°45' W 118°14'0 0.0
2015-Jun-29 22:33N 33°45' W 118°14'0 0.0
2015-Jun-29 21:33N 33°45' W 118°14'0 0.1
2015-Jun-29 20:34N 33°45' W 118°14'2 1.9
2015-Jun-29 19:34N 33°44' W 118°16'0 0.1
2015-Jun-29 18:32N 33°44' W 118°16'0 0.1
2015-Jun-29 17:33N 33°44' W 118°16'0 0.0
2015-Jun-29 16:33N 33°44' W 118°16'0 0.0
2015-Jun-29 15:33N 33°44' W 118°16'0 0.0
2015-Jun-29 14:33N 33°44' W 118°16'1 0.7
2015-Jun-29 13:33N 33°43' W 118°16'1 0.9
2015-Jun-29 12:33N 33°44' W 118°15'1 0.6
2015-Jun-29 11:34N 33°44' W 118°16'0 0.2
2015-Jun-29 10:33N 33°44' W 118°16'0 0.0
2015-Jun-29 09:30N 33°44' W 118°16'0 0.0
2015-Jun-29 08:33N 33°44' W 118°16'2 1.6
2015-Jun-29 07:33N 33°43' W 118°14'1 1.2
2015-Jun-29 06:33N 33°44' W 118°13'2 2.0
2015-Jun-29 05:34N 33°44' W 118°16'0 0.0
2015-Jun-29 04:33N 33°44' W 118°16'0 0.0
2015-Jun-29 03:34N 33°44' W 118°16'1 1.0
2015-Jun-29 02:33N 33°45' W 118°17'1 1.3
2015-Jun-29 01:33N 33°46' W 118°17'4 3.6
2015-Jun-29 00:33N 33°44' W 118°13'1 1.2
2015-Jun-28 23:33N 33°45' W 118°12'3 3.0
2015-Jun-28 22:34N 33°44' W 118°16'0 0.0
2015-Jun-28 21:33N 33°44' W 118°16'0 0.0
2015-Jun-28 20:33N 33°44' W 118°16'0 0.0
2015-Jun-28 19:33N 33°44' W 118°16'0 0.0
2015-Jun-28 18:33N 33°44' W 118°16'0 0.0
2015-Jun-28 17:33N 33°44' W 118°16'1 0.6
2015-Jun-28 16:33N 33°44' W 118°16'1 0.6
2015-Jun-28 15:32N 33°43' W 118°16'2 1.8
2015-Jun-28 14:29N 33°43' W 118°14'2 2.6
2015-Jun-28 13:34N 33°46' W 118°13'1 0.6
2015-Jun-28 12:33N 33°45' W 118°13'3 2.4
2015-Jun-28 11:27N 33°44' W 118°16'1 0.8
2015-Jun-28 10:04N 33°43' W 118°15'1 2.1
2015-Jun-28 09:33N 33°44' W 118°16'3 2.4
2015-Jun-28 08:24N 33°41' W 118°14'3 3.0
2015-Jun-28 07:29N 33°44' W 118°16'0 0.0
2015-Jun-28 06:33N 33°44' W 118°16'0 0.0
2015-Jun-28 05:33N 33°44' W 118°16'2 1.7
2015-Jun-28 04:34N 33°43' W 118°14'2 1.9
2015-Jun-28 03:33N 33°45' W 118°12'3 2.9
2015-Jun-28 02:33N 33°44' W 118°16'0 0.0
2015-Jun-28 01:33N 33°44' W 118°16'0 0.0
2015-Jun-28 00:33N 33°44' W 118°16'0 0.0
2015-Jun-27 23:33N 33°44' W 118°16'4 3.7
2015-Jun-27 22:33N 33°44' W 118°11'0 0.5
2015-Jun-27 21:33N 33°44' W 118°11'1 1.2
2015-Jun-27 20:33N 33°44' W 118°12'3 3.1
2015-Jun-27 19:33N 33°44' W 118°16'2 2.0
2015-Jun-27 18:33N 33°46' W 118°17'0 0.1
2015-Jun-27 17:34N 33°46' W 118°16'2 1.8
2015-Jun-27 16:33N 33°44' W 118°16'1 0.7
2015-Jun-27 15:33N 33°43' W 118°16'1 0.5
2015-Jun-27 14:33N 33°44' W 118°16'0 0.0
2015-Jun-27 13:34N 33°44' W 118°16'2 2.0
2015-Jun-27 12:33N 33°45' W 118°14'2 1.9
2015-Jun-27 11:33N 33°44' W 118°12'1 1.0
2015-Jun-27 10:29N 33°45' W 118°12'1 0.7
2015-Jun-27 09:33N 33°45' W 118°13'0 0.0
2015-Jun-27 08:33N 33°45' W 118°13'0 0.1
2015-Jun-27 07:33N 33°45' W 118°13'2 2.3
2015-Jun-27 06:33N 33°44' W 118°11'4 3.7
2015-Jun-27 05:33N 33°44' W 118°16'0 0.0
2015-Jun-27 04:33N 33°44' W 118°16'0 0.0
2015-Jun-27 03:33N 33°44' W 118°16'0 0.0
2015-Jun-27 02:34N 33°44' W 118°16'0 0.0
2015-Jun-27 01:33N 33°44' W 118°16'0 0.0
2015-Jun-27 00:33N 33°44' W 118°16'2 2.3
2015-Jun-26 23:33N 33°44' W 118°13'0 0.2
2015-Jun-26 22:34N 33°44' W 118°13'2 2.1
2015-Jun-26 21:28N 33°44' W 118°16'0 0.5
2015-Jun-26 20:33N 33°44' W 118°15'1 1.1
2015-Jun-26 19:33N 33°44' W 118°16'1 1.4
2015-Jun-26 18:32N 33°43' W 118°15'1 0.8
2015-Jun-26 17:33N 33°44' W 118°16'0 0.3
2015-Jun-26 16:33N 33°44' W 118°16'0 0.0
2015-Jun-26 15:33N 33°44' W 118°16'2 2.0
2015-Jun-26 14:29N 33°44' W 118°13'3 2.7
2015-Jun-26 13:33N 33°46' W 118°13'2 2.2
2015-Jun-26 12:31N 33°44' W 118°12'1 1.5
2015-Jun-26 11:33N 33°43' W 118°14'2 1.9
2015-Jun-26 10:33N 33°44' W 118°16'0 0.0
2015-Jun-26 09:32N 33°44' W 118°16'4 4.5
2015-Jun-26 08:34N 33°44' W 118°10'3 3.3
2015-Jun-26 07:34N 33°46' W 118°13'3 3.2
2015-Jun-26 06:33N 33°43' W 118°14'2 1.6
2015-Jun-26 05:33N 33°44' W 118°16'0 0.0
2015-Jun-26 04:33N 33°44' W 118°16'0 0.0
2015-Jun-26 03:33N 33°44' W 118°16'0 0.0
2015-Jun-26 02:33N 33°44' W 118°16'1 0.6
2015-Jun-26 01:33N 33°43' W 118°16'3 3.0
2015-Jun-26 00:33N 33°45' W 118°13'0 0.1
2015-Jun-25 23:33N 33°45' W 118°13'4 3.6
2015-Jun-25 22:31N 33°44' W 118°09'5 5.2
2015-Jun-25 21:33N 33°43' W 118°15'1 1.2
2015-Jun-25 20:33N 33°44' W 118°16'0 0.0
2015-Jun-25 19:33N 33°44' W 118°16'0 0.0
2015-Jun-25 18:33N 33°44' W 118°16'0 0.0
2015-Jun-25 17:33N 33°44' W 118°16'0 0.0
2015-Jun-25 16:29N 33°44' W 118°16'0 0.0
2015-Jun-25 15:31N 33°44' W 118°16'1 0.9
2015-Jun-25 14:32N 33°44' W 118°17'1 0.8
2015-Jun-25 13:30N 33°44' W 118°16'0 0.1
2015-Jun-25 12:33N 33°44' W 118°16'2 1.6
2015-Jun-25 11:33N 33°45' W 118°16'1 0.9
2015-Jun-25 10:33N 33°45' W 118°16'1 1.1
2015-Jun-25 09:33N 33°44' W 118°16'0 0.0
2015-Jun-25 08:32N 33°44' W 118°16'0 0.0
2015-Jun-25 07:28N 33°44' W 118°16'0 0.0
2015-Jun-25 06:33N 33°44' W 118°16'0 0.0
2015-Jun-25 05:33N 33°44' W 118°16'0 0.0
2015-Jun-25 04:33N 33°44' W 118°16'0 0.0
2015-Jun-25 03:33N 33°44' W 118°16'0 0.0
2015-Jun-25 02:33N 33°44' W 118°16'0 0.0
2015-Jun-25 01:34N 33°44' W 118°16'0 0.0
2015-Jun-25 00:33N 33°44' W 118°16'0 0.0
2015-Jun-24 23:33N 33°44' W 118°16'2 1.8
2015-Jun-24 22:33N 33°45' W 118°14'3 3.0
2015-Jun-24 21:33N 33°43' W 118°11'1 1.1
2015-Jun-24 20:33N 33°43' W 118°13'3 2.5
2015-Jun-24 19:33N 33°44' W 118°16'0 0.0
2015-Jun-24 18:33N 33°44' W 118°16'0 0.0
2015-Jun-24 17:33N 33°44' W 118°16'1 1.0
2015-Jun-24 16:19N 33°45' W 118°16'0 0.2
2015-Jun-24 15:33N 33°45' W 118°16'1 0.8
2015-Jun-24 14:33N 33°45' W 118°17'3 3.0
2015-Jun-24 13:33N 33°46' W 118°13'1 0.8
2015-Jun-24 12:32N 33°46' W 118°14'3 2.4
2015-Jun-24 11:29N 33°44' W 118°16'0 0.0
2015-Jun-24 09:32N 33°44' W 118°16'0 0.0
2015-Jun-24 08:09N 33°44' W 118°16'0 0.0
2015-Jun-24 07:18N 33°44' W 118°16'0 0.0
2015-Jun-24 06:33N 33°44' W 118°16'0 0.0
2015-Jun-24 05:34N 33°44' W 118°16'0 0.0
2015-Jun-24 04:33N 33°44' W 118°16'0 0.0
2015-Jun-24 03:34N 33°44' W 118°16'0 0.0
2015-Jun-24 02:33N 33°44' W 118°16'0 0.0
2015-Jun-24 01:33N 33°44' W 118°16'0 0.0
2015-Jun-24 00:33N 33°44' W 118°16'0 0.0
2015-Jun-23 23:33N 33°44' W 118°16'0 0.0
2015-Jun-23 22:33N 33°44' W 118°16'0 0.0
2015-Jun-23 21:33N 33°44' W 118°16'0 0.0
2015-Jun-23 20:33N 33°44' W 118°16'0 0.0
2015-Jun-23 19:33N 33°44' W 118°16'0 0.0
2015-Jun-23 19:06N 33°44' W 118°16'1 0.0
2015-Jun-22 19:33N 33°43' W 118°15'1 1.0
2015-Jun-22 18:33N 33°44' W 118°16'0 0.0
2015-Jun-22 17:33N 33°44' W 118°16'  
Track history (hours):
 
Tides and Currents Weather Stations Pressure Air Temp Water Temp Dewpoint Dewpoint Depression Visibility Wind Speed Wind Dir Waves Ship Positions

Tim Quigg

Owner: Harley Marine Services, Inc, Seattle, WA. More information available from US FCC via Universal Licensing System and Coast Guard Vessel Documentation Center.

Last reported at 2015-Jul-02 17:33 UTC. Time now 2015-Jul-02 18:20 UTC.
Position N 33°44' W 118°16'.

; draft 7.5 m.

Type: Tug. MMSI: 366926740.

Date/timePositionNaut miles runAvg speedWind from/ knotsBaromVisibWave heightAir tempDewpointWater temp
2015-Jul-02 17:33N 33°44' W 118°16'0 0.2
2015-Jul-02 16:33N 33°44' W 118°16'0 0.0
2015-Jul-02 15:17N 33°44' W 118°16'1 1.3
2015-Jul-02 14:33N 33°45' W 118°17'3 2.7
2015-Jul-02 13:33N 33°46' W 118°14'0 0.4
2015-Jul-02 12:33N 33°46' W 118°13'3 3.0
2015-Jul-02 11:33N 33°44' W 118°11'0 0.2
2015-Jul-02 10:33N 33°44' W 118°11'4 3.6
2015-Jul-02 09:34N 33°43' W 118°15'1 1.3
2015-Jul-02 08:33N 33°44' W 118°16'0 0.0
2015-Jul-02 07:33N 33°44' W 118°16'0 0.0
2015-Jul-02 06:32N 33°44' W 118°16'4 3.6
2015-Jul-02 05:30N 33°44' W 118°11'1 1.0
2015-Jul-02 04:33N 33°44' W 118°12'3 2.8
2015-Jul-02 03:33N 33°44' W 118°16'1 1.0
2015-Jul-02 02:33N 33°45' W 118°16'3 2.9
2015-Jul-02 01:33N 33°45' W 118°13'0 0.4
2015-Jul-02 00:33N 33°45' W 118°13'0 0.0
2015-Jul-01 23:33N 33°45' W 118°13'1 0.7
2015-Jul-01 22:34N 33°45' W 118°14'2 2.3
2015-Jul-01 21:34N 33°44' W 118°12'3 3.2
2015-Jul-01 20:33N 33°43' W 118°16'0 0.0
2015-Jul-01 06:33N 33°44' W 118°16'3 2.9
2015-Jul-01 05:33N 33°45' W 118°12'1 1.1
2015-Jul-01 04:33N 33°44' W 118°13'1 1.3
2015-Jul-01 03:33N 33°43' W 118°14'1 1.5
2015-Jul-01 02:33N 33°44' W 118°16'0 0.0
2015-Jul-01 01:32N 33°44' W 118°16'1 0.7
2015-Jul-01 00:33N 33°44' W 118°16'0 0.0
2015-Jun-30 23:33N 33°44' W 118°16'1 1.2
2015-Jun-30 22:33N 33°45' W 118°16'1 1.2
2015-Jun-30 21:33N 33°44' W 118°16'0 0.1
2015-Jun-30 20:33N 33°44' W 118°16'0 0.0
2015-Jun-30 19:33N 33°44' W 118°16'0 0.0
2015-Jun-30 18:33N 33°44' W 118°16'0 0.1
2015-Jun-30 17:33N 33°44' W 118°16'2 1.9
2015-Jun-30 16:33N 33°44' W 118°13'0 0.4
2015-Jun-30 15:33N 33°44' W 118°13'2 2.5
2015-Jun-30 14:33N 33°46' W 118°13'3 3.2
2015-Jun-30 13:33N 33°44' W 118°16'2 2.4
2015-Jun-30 12:33N 33°44' W 118°13'1 0.9
2015-Jun-30 11:33N 33°44' W 118°13'1 0.9
2015-Jun-30 10:33N 33°44' W 118°12'2 1.6
2015-Jun-30 09:33N 33°45' W 118°13'1 1.5
2015-Jun-30 08:33N 33°44' W 118°13'2 1.9
2015-Jun-30 07:33N 33°44' W 118°16'0 0.1
2015-Jun-30 06:33N 33°44' W 118°16'0 0.0
2015-Jun-30 05:33N 33°44' W 118°16'0 0.0
2015-Jun-30 04:33N 33°44' W 118°16'1 0.6
2015-Jun-30 03:33N 33°44' W 118°16'2 2.2
2015-Jun-30 02:33N 33°46' W 118°15'1 1.2
2015-Jun-30 01:33N 33°45' W 118°14'0 0.0
2015-Jun-30 00:33N 33°45' W 118°14'0 0.0
2015-Jun-29 23:33N 33°45' W 118°14'0 0.0
2015-Jun-29 22:33N 33°45' W 118°14'0 0.0
2015-Jun-29 21:33N 33°45' W 118°14'0 0.1
2015-Jun-29 20:34N 33°45' W 118°14'2 1.9
2015-Jun-29 19:34N 33°44' W 118°16'0 0.1
2015-Jun-29 18:32N 33°44' W 118°16'0 0.1
2015-Jun-29 17:33N 33°44' W 118°16'0 0.0
2015-Jun-29 16:33N 33°44' W 118°16'0 0.0
2015-Jun-29 15:33N 33°44' W 118°16'0 0.0
2015-Jun-29 14:33N 33°44' W 118°16'1 0.7
2015-Jun-29 13:33N 33°43' W 118°16'1 0.9
2015-Jun-29 12:33N 33°44' W 118°15'1 0.6
2015-Jun-29 11:34N 33°44' W 118°16'0 0.2
2015-Jun-29 10:33N 33°44' W 118°16'0 0.0
2015-Jun-29 09:30N 33°44' W 118°16'0 0.0
2015-Jun-29 08:33N 33°44' W 118°16'2 1.6
2015-Jun-29 07:33N 33°43' W 118°14'1 1.2
2015-Jun-29 06:33N 33°44' W 118°13'2 2.0
2015-Jun-29 05:34N 33°44' W 118°16'0 0.0
2015-Jun-29 04:33N 33°44' W 118°16'0 0.0
2015-Jun-29 03:34N 33°44' W 118°16'1 1.0
2015-Jun-29 02:33N 33°45' W 118°17'1 1.3
2015-Jun-29 01:33N 33°46' W 118°17'4 3.6
2015-Jun-29 00:33N 33°44' W 118°13'1 1.2
2015-Jun-28 23:33N 33°45' W 118°12'3 3.0
2015-Jun-28 22:34N 33°44' W 118°16'0 0.0
2015-Jun-28 21:33N 33°44' W 118°16'0 0.0
2015-Jun-28 20:33N 33°44' W 118°16'0 0.0
2015-Jun-28 19:33N 33°44' W 118°16'0 0.0
2015-Jun-28 18:33N 33°44' W 118°16'0 0.0
2015-Jun-28 17:33N 33°44' W 118°16'1 0.6
2015-Jun-28 16:33N 33°44' W 118°16'1 0.6
2015-Jun-28 15:32N 33°43' W 118°16'2 1.8
2015-Jun-28 14:29N 33°43' W 118°14'2 2.6
2015-Jun-28 13:34N 33°46' W 118°13'1 0.6
2015-Jun-28 12:33N 33°45' W 118°13'3 2.4
2015-Jun-28 11:27N 33°44' W 118°16'1 0.8
2015-Jun-28 10:04N 33°43' W 118°15'1 2.1
2015-Jun-28 09:33N 33°44' W 118°16'3 2.4
2015-Jun-28 08:24N 33°41' W 118°14'3 3.0
2015-Jun-28 07:29N 33°44' W 118°16'0 0.0
2015-Jun-28 06:33N 33°44' W 118°16'0 0.0
2015-Jun-28 05:33N 33°44' W 118°16'2 1.7
2015-Jun-28 04:34N 33°43' W 118°14'2 1.9
2015-Jun-28 03:33N 33°45' W 118°12'3 2.9
2015-Jun-28 02:33N 33°44' W 118°16'0 0.0
2015-Jun-28 01:33N 33°44' W 118°16'0 0.0
2015-Jun-28 00:33N 33°44' W 118°16'0 0.0
2015-Jun-27 23:33N 33°44' W 118°16'4 3.7
2015-Jun-27 22:33N 33°44' W 118°11'0 0.5
2015-Jun-27 21:33N 33°44' W 118°11'1 1.2
2015-Jun-27 20:33N 33°44' W 118°12'3 3.1
2015-Jun-27 19:33N 33°44' W 118°16'2 2.0
2015-Jun-27 18:33N 33°46' W 118°17'0 0.1
2015-Jun-27 17:34N 33°46' W 118°16'2 1.8
2015-Jun-27 16:33N 33°44' W 118°16'1 0.7
2015-Jun-27 15:33N 33°43' W 118°16'1 0.5
2015-Jun-27 14:33N 33°44' W 118°16'0 0.0
2015-Jun-27 13:34N 33°44' W 118°16'2 2.0
2015-Jun-27 12:33N 33°45' W 118°14'2 1.9
2015-Jun-27 11:33N 33°44' W 118°12'1 1.0
2015-Jun-27 10:29N 33°45' W 118°12'1 0.7
2015-Jun-27 09:33N 33°45' W 118°13'0 0.0
2015-Jun-27 08:33N 33°45' W 118°13'0 0.1
2015-Jun-27 07:33N 33°45' W 118°13'2 2.3
2015-Jun-27 06:33N 33°44' W 118°11'4 3.7
2015-Jun-27 05:33N 33°44' W 118°16'0 0.0
2015-Jun-27 04:33N 33°44' W 118°16'0 0.0
2015-Jun-27 03:33N 33°44' W 118°16'0 0.0
2015-Jun-27 02:34N 33°44' W 118°16'0 0.0
2015-Jun-27 01:33N 33°44' W 118°16'0 0.0
2015-Jun-27 00:33N 33°44' W 118°16'2 2.3
2015-Jun-26 23:33N 33°44' W 118°13'0 0.2
2015-Jun-26 22:34N 33°44' W 118°13'2 2.1
2015-Jun-26 21:28N 33°44' W 118°16'0 0.5
2015-Jun-26 20:33N 33°44' W 118°15'1 1.1
2015-Jun-26 19:33N 33°44' W 118°16'1 1.4
2015-Jun-26 18:32N 33°43' W 118°15'1 0.8
2015-Jun-26 17:33N 33°44' W 118°16'0 0.3
2015-Jun-26 16:33N 33°44' W 118°16'0 0.0
2015-Jun-26 15:33N 33°44' W 118°16'2 2.0
2015-Jun-26 14:29N 33°44' W 118°13'3 2.7
2015-Jun-26 13:33N 33°46' W 118°13'2 2.2
2015-Jun-26 12:31N 33°44' W 118°12'1 1.5
2015-Jun-26 11:33N 33°43' W 118°14'2 1.9
2015-Jun-26 10:33N 33°44' W 118°16'0 0.0
2015-Jun-26 09:32N 33°44' W 118°16'4 4.5
2015-Jun-26 08:34N 33°44' W 118°10'3 3.3
2015-Jun-26 07:34N 33°46' W 118°13'3 3.2
2015-Jun-26 06:33N 33°43' W 118°14'2 1.6
2015-Jun-26 05:33N 33°44' W 118°16'0 0.0
2015-Jun-26 04:33N 33°44' W 118°16'0 0.0
2015-Jun-26 03:33N 33°44' W 118°16'0 0.0
2015-Jun-26 02:33N 33°44' W 118°16'1 0.6
2015-Jun-26 01:33N 33°43' W 118°16'3 3.0
2015-Jun-26 00:33N 33°45' W 118°13'0 0.1
2015-Jun-25 23:33N 33°45' W 118°13'4 3.6
2015-Jun-25 22:31N 33°44' W 118°09'5 5.2
2015-Jun-25 21:33N 33°43' W 118°15'1 1.2
2015-Jun-25 20:33N 33°44' W 118°16'0 0.0
2015-Jun-25 19:33N 33°44' W 118°16'0 0.0
2015-Jun-25 18:33N 33°44' W 118°16'0 0.0
2015-Jun-25 17:33N 33°44' W 118°16'0 0.0
2015-Jun-25 16:29N 33°44' W 118°16'0 0.0
2015-Jun-25 15:31N 33°44' W 118°16'1 0.9
2015-Jun-25 14:32N 33°44' W 118°17'1 0.8
2015-Jun-25 13:30N 33°44' W 118°16'0 0.1
2015-Jun-25 12:33N 33°44' W 118°16'2 1.6
2015-Jun-25 11:33N 33°45' W 118°16'1 0.9
2015-Jun-25 10:33N 33°45' W 118°16'1 1.1
2015-Jun-25 09:33N 33°44' W 118°16'0 0.0
2015-Jun-25 08:32N 33°44' W 118°16'0 0.0
2015-Jun-25 07:28N 33°44' W 118°16'0 0.0
2015-Jun-25 06:33N 33°44' W 118°16'0 0.0
2015-Jun-25 05:33N 33°44' W 118°16'0 0.0
2015-Jun-25 04:33N 33°44' W 118°16'0 0.0
2015-Jun-25 03:33N 33°44' W 118°16'0 0.0
2015-Jun-25 02:33N 33°44' W 118°16'0 0.0
2015-Jun-25 01:34N 33°44' W 118°16'0 0.0
2015-Jun-25 00:33N 33°44' W 118°16'0 0.0
2015-Jun-24 23:33N 33°44' W 118°16'2 1.8
2015-Jun-24 22:33N 33°45' W 118°14'3 3.0
2015-Jun-24 21:33N 33°43' W 118°11'1 1.1
2015-Jun-24 20:33N 33°43' W 118°13'3 2.5
2015-Jun-24 19:33N 33°44' W 118°16'0 0.0
2015-Jun-24 18:33N 33°44' W 118°16'0 0.0
2015-Jun-24 17:33N 33°44' W 118°16'1 1.0
2015-Jun-24 16:19N 33°45' W 118°16'0 0.2
2015-Jun-24 15:33N 33°45' W 118°16'1 0.8
2015-Jun-24 14:33N 33°45' W 118°17'3 3.0
2015-Jun-24 13:33N 33°46' W 118°13'1 0.8
2015-Jun-24 12:32N 33°46' W 118°14'3 2.4
2015-Jun-24 11:29N 33°44' W 118°16'0 0.0
2015-Jun-24 09:32N 33°44' W 118°16'0 0.0
2015-Jun-24 08:09N 33°44' W 118°16'0 0.0
2015-Jun-24 07:18N 33°44' W 118°16'0 0.0
2015-Jun-24 06:33N 33°44' W 118°16'0 0.0
2015-Jun-24 05:34N 33°44' W 118°16'0 0.0
2015-Jun-24 04:33N 33°44' W 118°16'0 0.0
2015-Jun-24 03:34N 33°44' W 118°16'0 0.0
2015-Jun-24 02:33N 33°44' W 118°16'0 0.0
2015-Jun-24 01:33N 33°44' W 118°16'0 0.0
2015-Jun-24 00:33N 33°44' W 118°16'0 0.0
2015-Jun-23 23:33N 33°44' W 118°16'0 0.0
2015-Jun-23 22:33N 33°44' W 118°16'0 0.0
2015-Jun-23 21:33N 33°44' W 118°16'0 0.0
2015-Jun-23 20:33N 33°44' W 118°16'0 0.0
2015-Jun-23 19:33N 33°44' W 118°16'0 0.0
2015-Jun-23 19:06N 33°44' W 118°16'1 0.0
2015-Jun-22 19:33N 33°43' W 118°15'1 1.0
2015-Jun-22 18:33N 33°44' W 118°16'0 0.0
2015-Jun-22 17:33N 33°44' W 118°16'  

Dump ship's entire track history